• Join FlightAware (Why Join?)
  • Login
  • US Flag 
08:57PM EDT


 

Airport Tracker/Info


-or-


 

Live Flight TrackerFlight Track Log ✈ ASQ5685 ✈ 03-Dec-2013 ✈ KATL - KIAD

Flight Track Log - Related Links

Times and Time Zones

All times are in EST time to prevent confusion due to time zone crossing. See the ASQ5685 flight status page for this flight to view local times or setup timezone preferences in your user account.

Time Position Orientation Groundspeed Altitude Reporting Facility
EST Latitude Longitude Course Direction KTS MPH feet Rate Location/Type
09:47AM 33.6333 -84.3667 69° East 190 219 2,400  Level Atlanta TRACON
09:48AM 33.6333 -84.2833 90° East 269 310 4,600 2,400 Climbing Atlanta TRACON
09:49AM 33.8819 -84.1364 54° Northeast  Level Estimated
09:49AM 33.6333 -84.2000 90° East 295 339 7,200  Level Atlanta TRACON
09:50AM 33.9635 -84.0389 53° Northeast  Level Estimated
09:50AM 33.6564 -84.0714 78° East 328 377 10,400  Level Atlanta Center
09:51AM 34.0046 -83.9095 69° East  Level FlightAware Approximate
09:51AM 33.7192 -83.9864 48° Northeast 315 362 11,600  Level Atlanta Center
09:52AM 34.0456 -83.7799 69° East  Level FlightAware Approximate
09:52AM 33.7900 -83.8989 46° Northeast 350 403 13,300  Level Atlanta Center
09:53AM 33.8628 -83.8036 47° Northeast 374 430 15,300 1,800 Climbing Atlanta Center
09:54AM 33.9336 -83.7083 48° Northeast 379 436 17,000 1,500 Climbing Atlanta Center
09:55AM 34.0022 -83.6028 52° Northeast 392 451 18,400 1,440 Climbing Atlanta Center
09:56AM 34.0686 -83.4947 53° Northeast 402 463 19,900 1,380 Climbing Atlanta Center
09:57AM 34.1369 -83.3839 53° Northeast 409 471 21,200 1,380 Climbing Atlanta Center
09:58AM 34.2114 -83.2650 53° Northeast 409 471 22,700 1,080 Climbing Atlanta Center
09:59AM 34.2794 -83.1539 53° Northeast 409 471 23,400 600 Climbing Atlanta Center
10:00AM 34.3475 -83.0400 54° Northeast 415 478 24,000 780 Climbing Atlanta Center
10:01AM 34.4217 -82.9233 52° Northeast 420 483 25,000 480 Climbing Atlanta Center
10:02AM 34.4872 -82.8114 55° Northeast 414 476 25,000  Level Atlanta Center
10:03AM 34.5531 -82.7072 52° Northeast 402 463 25,000 360 Level Atlanta Center
10:04AM 34.6206 -82.5975 53° Northeast 394 453 25,800 900 Climbing Atlanta Center
10:05AM 34.6147 -82.4639 93° East 371 427 26,900 600 Climbing Atlanta Center
10:06AM 34.5692 -82.3233 111° Southeast 398 458 27,000 240 Climbing Atlanta Center
10:07AM 34.5211 -82.1806 112° Southeast 419 482 27,400 660 Climbing Atlanta Center
10:08AM 34.4731 -82.0381 112° Southeast 440 506 28,400 960 Climbing Atlanta Center
10:09AM 34.4997 -81.8989 77° East 402 463 29,400 720 Climbing Atlanta Center
10:10AM 34.5856 -81.7983 44° Northeast 378 435 29,900 480 Climbing Atlanta Center
10:11AM 34.6736 -81.6975 43° Northeast 407 468 30,400 480 Climbing Atlanta Center
10:12AM 34.7592 -81.5939 45° Northeast 413 475 30,900 300 Climbing Atlanta Center
10:13AM 34.8467 -81.4825 46° Northeast 429 494 31,000  Climbing Atlanta Center
10:14AM 34.9319 -81.3786 45° Northeast 434 499 31,000  Level Atlanta Center
10:15AM 35.0172 -81.2719 46° Northeast 434 499 31,000  Level Atlanta Center
10:16AM 35.1025 -81.1650 46° Northeast 434 499 31,000  Level Atlanta Center
10:17AM 35.1878 -81.0653 44° Northeast 429 494 31,000  Level Atlanta Center
10:18AM 35.2728 -80.9631 44° Northeast 423 487 31,000  Level Atlanta Center
10:19AM 35.3514 -80.8481 50° Northeast 423 487 31,000  Level Atlanta Center
10:20AM 35.4361 -80.7456 45° Northeast 429 494 31,000  Level Atlanta Center
10:21AM 35.5131 -80.6506 45° Northeast 429 494 31,000  Level Atlanta Center
10:22AM 35.5956 -80.5475 45° Northeast 424 488 31,000  Level Atlanta Center
10:23AM 35.6781 -80.4392 47° Northeast 424 488 31,000  Level Atlanta Center
10:25AM 35.8492 -80.2278 45° Northeast 418 481 31,000  Level Washington Center
10:26AM 35.9344 -80.1250 44° Northeast 418 481 31,000  Level Washington Center
10:27AM 36.0136 -80.0192 47° Northeast 418 481 31,000  Level Washington Center
10:28AM 36.0908 -79.9025 51° Northeast 418 481 31,000  Level Washington Center
10:29AM 36.1578 -79.7828 55° Northeast 424 488 31,000  Level Washington Center
10:30AM 36.2314 -79.6478 56° Northeast 434 499 31,000  Level Washington Center
10:31AM 36.3000 -79.5250 55° Northeast 434 499 31,000  Level Washington Center
10:32AM 36.3639 -79.4225 52° Northeast 434 499 31,000 -480 Level Washington Center
10:33AM 36.4306 -79.2967 57° Northeast 434 499 30,100 -1,260 Descending Washington Center
10:34AM 36.4989 -79.1758 55° Northeast 434 499 28,600 -1,500 Descending Washington Center
10:35AM 36.5628 -79.0622 55° Northeast 420 483 27,100 1,200 Descending Washington Center
10:36AM 36.6242 -78.9539 55° Northeast 405 466 31,000 -1,080 Climbing Washington Center
10:37AM 36.6903 -78.8272 57° Northeast 390 449 25,000 -3,060 Descending Washington Center
10:38AM 36.7517 -78.7156 56° Northeast 390 449 25,000 -60 Level Washington Center
10:39AM 36.8128 -78.6169 52° Northeast 390 449 24,900 -600 Descending Washington Center
10:40AM 36.8942 -78.5267 42° Northeast 385 443 23,900 -1,020 Descending Washington Center
10:41AM 36.9800 -78.4336 41° Northeast 390 449 22,900 -960 Descending Washington Center
10:42AM 37.0719 -78.3303 42° Northeast 396 456 22,000 -480 Descending Washington Center
10:43AM 37.1575 -78.2394 40° Northeast 396 456 22,000  Level Washington Center
10:44AM 37.2281 -78.1639 40° Northeast 396 456 22,000  Level Washington Center
10:45AM 37.3156 -78.0647 42° Northeast 391 450 22,000  Level Washington Center
10:46AM 37.3986 -77.9761 40° Northeast 391 450 22,000  Level Washington Center
10:47AM 37.4778 -77.8842 43° Northeast 391 450 22,000 -120 Level Washington Center
10:48AM 37.5606 -77.8081 36° Northeast 385 443 21,800 -1,080 Descending Washington Center
10:49AM 37.6575 -77.7506 25° Northeast 375 432 19,900 -1,920 Descending Washington Center
10:50AM 37.7500 -77.7008 23° Northeast 369 425 18,000 -1,920 Descending Washington Center
10:51AM 37.8386 -77.6453 26° Northeast 362 417 16,100 -1,980 Descending Washington Center
10:52AM 37.9272 -77.5953 24° Northeast 356 410 14,100 -1,980 Descending Washington Center
10:53AM 38.0133 -77.5447 25° Northeast 346 398 12,200 -1,980 Descending Washington Center
10:54AM 38.1061 -77.4917 24° Northeast 336 387 10,300 -1,080 Descending Washington Center
10:55AM 38.1839 -77.4461 25° Northeast 318 366 10,100 -120 Descending Washington Center
10:56AM 38.2575 -77.4031 25° Northeast 303 349 10,100 -480 Level Washington Center
10:57AM 38.3333 -77.3600 24° Northeast 296 341 9,200 -1,260 Descending Washington Center
10:58AM 38.4106 -77.3592 360° North 284 327 7,600 -1,560 Descending Washington Center
10:59AM 38.4856 -77.3608 359° North 272 313 6,100 -1,320 Descending Washington Center
11:00AM 38.5606 -77.3653 357° North 266 306 5,100 -720 Descending Washington Center
11:01AM 38.6356 -77.3644 360° North 271 312 4,700 -600 Descending Washington Center
11:02AM 38.7086 -77.3608 North 271 312 4,000 -360 Descending Washington Center
11:03AM 38.7836 -77.3572 North 271 312 4,000  Level Washington Center
11:05AM 38.8833 -77.3500 North 268 308 4,000  Level Potomac TRACON
11:06AM 38.9500 -77.3500 360° North 265 305 4,000  Level Potomac TRACON
11:06AM 39.0167 -77.3500 360° North 229 264 4,000  Level Potomac TRACON
11:07AM 39.0667 -77.3500 360° North 225 259 4,000  Level Potomac TRACON
11:08AM 39.1333 -77.3500 360° North 233 268 4,000  Level Potomac TRACON
11:09AM 39.2000 -77.3500 360° North 230 265 4,000  Level Potomac TRACON
11:10AM 39.2667 -77.3333 11° North 226 260 4,000  Level Potomac TRACON
11:11AM 39.3167 -77.3333 360° North 225 259 4,000  Level Potomac TRACON
11:12AM 39.3333 -77.4000 288° West 226 260 4,000 -540 Level Potomac TRACON
11:13AM 39.2833 -77.4333 207° Southwest 214 246 3,000 -540 Descending Potomac TRACON
11:14AM 39.2333 -77.4333 180° South 170 196 3,000  Level Potomac TRACON
11:15AM 39.1833 -77.4333 180° South 172 198 3,000  Level Potomac TRACON
11:16AM 39.1500 -77.4333 180° South 175 201 3,000  Level Potomac TRACON
11:17AM 39.1000 -77.4333 180° South 177 204 3,000 -480 Level Potomac TRACON
11:18AM 39.0500 -77.4333 180° South 171 197 2,100 -840 Descending Potomac TRACON
11:19AM 39.0000 -77.4333 180° South 141 162 1,400 -780 Descending Potomac TRACON
11:20AM 38.9667 -77.4333 180° South 143 165 600 -840 Descending Potomac TRACON